Time;durP1;ratioP1;P1;durP2;ratioP2;P2;SDS_P1;SDS_P2;PMS_P1;PMS_P2;Temp;Humidity;BMP_temperature;BMP_pressure;BME280_temperature;BME280_humidity;BME280_pressure;Samples;Min_cycle;Max_cycle;Signal;HPM_P1;HPM_P2
2021/03/13 00:01:07;;;;;;;99.25;65.07;;;180.00;2252.80;;;;;;4972308;28;20591;-78
2021/03/13 00:03:33;;;;;;;119.07;71.38;;;180.00;2252.80;;;;;;4973400;28;20109;-80
2021/03/13 00:05:58;;;;;;;86.30;61.95;;;179.80;2252.80;;;;;;4973344;28;20837;-76
2021/03/13 00:08:24;;;;;;;79.05;56.63;;;179.70;2252.80;;;;;;4971257;28;20049;-76
2021/03/13 00:10:50;;;;;;;94.25;63.60;;;179.80;2252.80;;;;;;4973251;28;20050;-77
2021/03/13 00:13:16;;;;;;;86.20;60.20;;;179.80;2252.80;;;;;;4973527;28;20027;-76
2021/03/13 00:15:44;;;;;;;96.22;63.00;;;179.70;2252.80;;;;;;4973920;28;20515;-76
2021/03/13 00:18:10;;;;;;;93.55;63.97;;;179.70;2252.80;;;;;;4969861;28;20567;-75
2021/03/13 00:20:38;;;;;;;88.32;60.97;;;179.70;2252.80;;;;;;4974383;28;20114;-77
2021/03/13 00:23:06;;;;;;;84.93;59.33;;;179.80;2252.80;;;;;;4970996;28;20031;-78
2021/03/13 00:25:34;;;;;;;73.13;53.20;;;179.80;2252.80;;;;;;4974247;28;20053;-76
2021/03/13 00:28:00;;;;;;;73.72;53.97;;;179.80;2252.80;;;;;;4973165;28;20027;-76
2021/03/13 00:30:32;;;;;;;74.05;53.05;;;179.80;2252.80;;;;;;4974486;28;20447;-79
2021/03/13 00:33:13;;;;;;;75.57;54.85;;;179.80;2252.80;;;;;;4978564;28;20041;-77
2021/03/13 00:35:40;;;;;;;83.00;56.55;;;179.90;2252.80;;;;;;4975198;28;20046;-79
2021/03/13 00:38:07;;;;;;;75.43;52.58;;;179.80;2252.80;;;;;;4973557;28;20027;-76
2021/03/13 00:40:35;;;;;;;77.88;55.33;;;179.60;2252.80;;;;;;4972001;28;20078;-74
2021/03/13 00:43:02;;;;;;;83.30;55.65;;;179.60;2252.80;;;;;;4967074;28;20039;-74
2021/03/13 00:45:29;;;;;;;65.60;47.90;;;179.60;2252.80;;;;;;4973108;28;20023;-74
2021/03/13 00:47:56;;;;;;;62.78;45.45;;;179.70;2252.80;;;;;;4971227;28;20094;-75
2021/03/13 00:50:25;;;;;;;63.80;47.03;;;179.70;2252.80;;;;;;4972684;28;20094;-74
2021/03/13 00:52:51;;;;;;;71.88;50.40;;;179.70;2252.80;;;;;;4970683;28;20109;-75
2021/03/13 00:55:17;;;;;;;69.47;48.28;;;179.60;2252.80;;;;;;4976006;28;20077;-75
2021/03/13 00:57:43;;;;;;;65.50;46.92;;;179.50;2252.80;;;;;;4985480;28;20037;-74
2021/03/13 01:00:12;;;;;;;66.95;45.13;;;179.50;2252.80;;;;;;4970334;28;20400;-74
2021/03/13 01:02:38;;;;;;;71.50;48.50;;;179.50;2252.80;;;;;;4964548;28;20134;-74
2021/03/13 01:05:06;;;;;;;64.32;44.90;;;179.50;2252.80;;;;;;4973352;28;20027;-73
2021/03/13 01:07:33;;;;;;;65.45;45.70;;;179.50;2252.80;;;;;;4970986;28;20517;-73
2021/03/13 01:09:59;;;;;;;63.17;44.65;;;179.60;2252.80;;;;;;4973743;28;20019;-76
2021/03/13 01:12:25;;;;;;;61.67;42.83;;;179.70;2252.80;;;;;;4987307;28;20035;-77
2021/03/13 01:14:51;;;;;;;59.85;41.83;;;179.70;2252.80;;;;;;4973768;28;20023;-78
2021/03/13 01:17:16;;;;;;;57.53;42.00;;;179.70;2252.80;;;;;;4966958;28;20062;-79
2021/03/13 01:19:42;;;;;;;56.72;40.03;;;179.80;2252.80;;;;;;4964924;28;20023;-75
2021/03/13 01:22:08;;;;;;;62.28;44.03;;;179.60;2252.80;;;;;;4971310;28;20049;-75
2021/03/13 01:24:40;;;;;;;48.60;36.78;;;179.50;2252.80;;;;;;4973575;28;20381;-75
2021/03/13 01:27:07;;;;;;;33.55;28.08;;;179.60;2252.80;;;;;;4972641;28;20039;-75
2021/03/13 01:29:32;;;;;;;39.47;30.05;;;179.60;2252.80;;;;;;4971698;28;20019;-75
2021/03/13 01:32:03;;;;;;;29.40;24.70;;;179.50;2252.80;;;;;;4969922;28;20472;-74
2021/03/13 01:34:29;;;;;;;26.45;21.77;;;179.50;2252.80;;;;;;4973149;28;20069;-74
2021/03/13 01:36:55;;;;;;;25.45;21.48;;;179.30;2252.80;;;;;;4971332;28;20038;-75
2021/03/13 01:39:20;;;;;;;24.20;21.30;;;179.30;2252.80;;;;;;4970024;28;20050;-75
2021/03/13 01:41:46;;;;;;;21.63;19.33;;;179.30;2252.80;;;;;;4973617;28;20023;-74
2021/03/13 01:44:12;;;;;;;21.73;19.40;;;179.20;2252.80;;;;;;4973461;28;20448;-74
2021/03/13 01:46:38;;;;;;;20.58;18.48;;;154.50;2252.80;;;;;;4973375;28;20026;-75
2021/03/13 01:49:03;;;;;;;19.85;17.15;;;154.50;2252.80;;;;;;4972447;28;20026;-73
2021/03/13 01:51:30;;;;;;;19.90;17.35;;;154.40;2252.80;;;;;;4971582;28;20473;-75
2021/03/13 01:53:56;;;;;;;18.90;16.95;;;154.40;2252.80;;;;;;4986932;28;20064;-74
2021/03/13 01:56:22;;;;;;;19.75;16.27;;;154.40;2252.80;;;;;;4975688;28;20026;-76
2021/03/13 01:58:48;;;;;;;19.20;16.92;;;154.30;2252.80;;;;;;4976889;28;20450;-76
2021/03/13 02:01:13;;;;;;;19.48;16.90;;;154.30;2252.80;;;;;;4978960;28;20027;-75
2021/03/13 02:03:41;;;;;;;21.17;18.63;;;154.40;2252.80;;;;;;4979236;28;20030;-75
2021/03/13 02:06:07;;;;;;;20.70;17.90;;;154.30;2252.80;;;;;;4978293;28;20114;-75
2021/03/13 02:08:45;;;;;;;18.15;16.17;;;154.30;2252.80;;;;;;4976739;28;20055;-75
2021/03/13 02:11:48;;;;;;;20.40;17.30;;;154.40;2252.80;;;;;;4966390;28;20057;-77
2021/03/13 02:14:46;;;;;;;22.95;17.45;;;154.40;2252.80;;;;;;4974978;28;20022;-77
2021/03/13 02:17:38;;;;;;;20.77;17.83;;;154.40;2252.80;;;;;;4975659;28;20033;-75
2021/03/13 02:20:31;;;;;;;22.55;17.23;;;154.30;2252.80;;;;;;4975901;28;20098;-75
2021/03/13 02:22:59;;;;;;;19.70;16.20;;;154.30;2252.80;;;;;;4976643;28;20041;-74
2021/03/13 02:25:48;;;;;;;19.00;15.93;;;154.30;2252.80;;;;;;4975671;28;20066;-75
2021/03/13 02:28:17;;;;;;;18.50;16.60;;;154.30;2252.80;;;;;;4974803;28;20030;-74
2021/03/13 02:30:45;;;;;;;17.92;15.68;;;154.40;2252.80;;;;;;4976493;28;20026;-76
2021/03/13 02:33:41;;;;;;;18.63;16.48;;;154.30;2252.80;;;;;;4977551;28;20404;-75
2021/03/13 02:36:10;;;;;;;18.10;15.90;;;154.30;2252.80;;;;;;4936384;29;20038;-75
2021/03/13 02:39:00;;;;;;;16.38;14.27;;;154.30;2252.80;;;;;;4944483;29;20023;-74
2021/03/13 02:41:36;;;;;;;18.92;15.90;;;154.30;2252.80;;;;;;4934982;29;20035;-76
2021/03/13 02:44:06;;;;;;;16.95;13.55;;;154.30;2252.80;;;;;;4935798;29;20119;-74
2021/03/13 02:46:36;;;;;;;16.95;14.52;;;154.30;2252.80;;;;;;4934778;28;20042;-74
2021/03/13 02:49:02;;;;;;;19.52;13.82;;;154.30;2252.80;;;;;;4934174;29;20119;-74
2021/03/13 02:51:30;;;;;;;15.93;13.60;;;154.20;2252.80;;;;;;4928223;29;20023;-74
2021/03/13 02:53:57;;;;;;;16.05;13.65;;;154.20;2252.80;;;;;;4925187;29;20138;-75
2021/03/13 02:56:23;;;;;;;19.13;12.98;;;154.20;2252.80;;;;;;4933471;29;20019;-75
2021/03/13 02:58:54;;;;;;;16.67;12.15;;;154.20;2252.80;;;;;;4942981;29;20528;-74
2021/03/13 03:01:21;;;;;;;14.88;12.00;;;154.20;2252.80;;;;;;4941956;29;20568;-75
2021/03/13 03:03:49;;;;;;;18.77;12.45;;;154.00;2252.80;;;;;;4939594;29;20058;-75
2021/03/13 03:06:18;;;;;;;13.02;10.80;;;154.20;2252.80;;;;;;4938229;29;20035;-74
2021/03/13 03:08:45;;;;;;;12.32;10.25;;;154.10;2252.80;;;;;;4933692;29;20080;-75
2021/03/13 03:11:11;;;;;;;12.77;10.27;;;154.20;2252.80;;;;;;4935216;29;20056;-74
2021/03/13 03:13:37;;;;;;;11.85;9.90;;;154.10;2252.80;;;;;;4974451;28;20046;-73
2021/03/13 03:16:05;;;;;;;12.75;10.15;;;154.10;2252.80;;;;;;4969072;28;20081;-75
2021/03/13 03:18:32;;;;;;;12.95;11.30;;;154.20;2252.80;;;;;;4976561;28;20061;-74
2021/03/13 03:20:59;;;;;;;13.82;9.60;;;154.10;2252.80;;;;;;4975999;28;20011;-75
2021/03/13 03:23:26;;;;;;;14.52;9.35;;;154.20;2252.80;;;;;;4967283;28;20038;-74
2021/03/13 03:25:55;;;;;;;13.80;10.98;;;154.40;2252.80;;;;;;4976360;28;20015;-75
2021/03/13 03:28:22;;;;;;;14.55;9.55;;;154.20;2252.80;;;;;;4970460;28;20097;-74
2021/03/13 03:30:51;;;;;;;14.07;9.93;;;154.20;2252.80;;;;;;4976336;28;20019;-75
2021/03/13 03:33:17;;;;;;;12.05;9.40;;;154.20;2252.80;;;;;;4970944;28;20031;-74
2021/03/13 03:35:44;;;;;;;11.80;9.02;;;154.10;2252.80;;;;;;4973477;28;20074;-74
2021/03/13 03:38:10;;;;;;;12.10;9.63;;;154.10;2252.80;;;;;;4990616;28;20381;-74
2021/03/13 03:40:37;;;;;;;9.90;8.02;;;154.00;2252.80;;;;;;4968664;28;20501;-76
2021/03/13 03:43:02;;;;;;;12.25;9.20;;;153.90;2252.80;;;;;;4976940;28;20066;-75
2021/03/13 03:45:31;;;;;;;10.07;8.18;;;153.90;2252.80;;;;;;4977683;28;20023;-74
2021/03/13 03:48:02;;;;;;;12.32;8.00;;;153.80;2252.80;;;;;;4977154;28;20038;-76
2021/03/13 03:50:30;;;;;;;10.40;7.88;;;154.00;2252.80;;;;;;4979134;28;20045;-76
2021/03/13 03:52:58;;;;;;;9.75;7.82;;;153.80;2252.80;;;;;;4974626;28;20508;-75
2021/03/13 03:55:25;;;;;;;10.70;8.13;;;153.80;2252.80;;;;;;4974528;28;20031;-76
2021/03/13 03:57:52;;;;;;;10.90;8.68;;;153.80;2252.80;;;;;;4976094;28;20121;-74
2021/03/13 04:00:20;;;;;;;11.95;7.80;;;153.80;2252.80;;;;;;4981906;28;20019;-75
2021/03/13 04:02:46;;;;;;;12.70;8.13;;;153.80;2252.80;;;;;;4974512;28;20070;-74
2021/03/13 04:05:15;;;;;;;11.18;7.80;;;153.80;2252.80;;;;;;4974931;28;20023;-76
2021/03/13 04:07:42;;;;;;;11.75;8.52;;;153.90;2252.80;;;;;;4990877;28;20046;-74
2021/03/13 04:10:09;;;;;;;10.23;8.48;;;153.90;2252.80;;;;;;4971197;28;20019;-75
2021/03/13 04:12:40;;;;;;;10.90;8.73;;;153.90;2252.80;;;;;;4979548;28;20033;-75
2021/03/13 04:15:11;;;;;;;9.40;7.53;;;153.90;2252.80;;;;;;4974646;28;20019;-75
2021/03/13 04:17:38;;;;;;;10.77;7.85;;;154.00;2252.80;;;;;;4977858;28;20022;-76
2021/03/13 04:20:09;;;;;;;10.60;8.35;;;154.00;2252.80;;;;;;4972284;28;20025;-76
2021/03/13 04:22:39;;;;;;;9.13;7.78;;;154.10;2252.80;;;;;;4974774;28;20042;-75
2021/03/13 04:25:07;;;;;;;9.80;7.55;;;154.30;2252.80;;;;;;4974339;28;20075;-74
2021/03/13 04:27:33;;;;;;;9.77;8.15;;;154.30;2252.80;;;;;;4974099;28;20077;-75
2021/03/13 04:29:59;;;;;;;10.73;7.63;;;154.00;2252.80;;;;;;4974134;28;20042;-76
2021/03/13 04:32:26;;;;;;;9.38;7.53;;;154.10;2252.80;;;;;;4985457;28;20073;-74
2021/03/13 04:34:53;;;;;;;9.68;7.85;;;154.20;2252.80;;;;;;4966883;28;20484;-74
2021/03/13 04:37:20;;;;;;;11.40;9.82;;;;;;;;;;4976769;28;20026;-75
2021/03/13 04:39:46;;;;;;;13.02;10.45;;;;;;;;;;4973034;28;20488;-75
2021/03/13 04:42:13;;;;;;;15.65;11.23;;;;;;;;;;4973710;28;20100;-75
2021/03/13 04:44:39;;;;;;;12.57;10.38;;;;;;;;;;4968611;28;20031;-75
2021/03/13 04:47:05;;;;;;;17.27;13.52;;;;;;;;;;4969157;28;20089;-76
2021/03/13 04:49:32;;;;;;;14.40;10.40;;;;;;;;;;4974304;28;20030;-78
2021/03/13 04:51:59;;;;;;;14.75;10.88;;;;;;;;;;4974550;28;20045;-79
2021/03/13 04:54:29;;;;;;;13.52;10.98;;;;;;;;;;4971745;28;20035;-77
2021/03/13 04:56:55;;;;;;;16.50;11.18;;;;;;;;;;4971168;28;20019;-79
2021/03/13 04:59:22;;;;;;;12.57;10.02;;;;;;;;;;4972596;28;20038;-80
2021/03/13 05:01:48;;;;;;;13.60;9.98;;;;;;;;;;4975063;28;20089;-78
2021/03/13 05:04:14;;;;;;;12.38;9.43;;;;;;;;;;4973233;28;20030;-78
2021/03/13 05:06:40;;;;;;;13.35;10.60;;;;;;;;;;4974143;28;20579;-73
2021/03/13 05:09:07;;;;;;;14.15;10.07;;;;;;;;;;4967886;28;20062;-77
2021/03/13 05:11:36;;;;;;;12.73;9.70;;;;;;;;;;4972078;28;20027;-69
2021/03/13 05:14:03;;;;;;;13.32;10.25;;;;;;;;;;4982319;28;20030;-69
2021/03/13 05:16:29;;;;;;;13.98;10.55;;;;;;;;;;4974719;28;20027;-70
2021/03/13 05:18:55;;;;;;;13.82;11.07;;;;;;;;;;4971448;28;20069;-70
2021/03/13 05:21:22;;;;;;;13.73;11.77;;;;;;;;;;4970627;28;20027;-69
2021/03/13 05:23:48;;;;;;;15.45;11.00;;;;;;;;;;4972712;28;20039;-75
2021/03/13 05:26:14;;;;;;;13.75;10.75;;;;;;;;;;4973211;28;20026;-74
2021/03/13 05:28:40;;;;;;;12.02;10.52;;;;;;;;;;4973342;28;20054;-72
2021/03/13 05:31:06;;;;;;;12.98;10.32;;;;;;;;;;4972559;28;20536;-76
2021/03/13 05:33:32;;;;;;;13.88;10.27;;;;;;;;;;4971109;28;20029;-75
2021/03/13 05:35:58;;;;;;;14.70;12.18;;;;;;;;;;4973414;28;20373;-72
2021/03/13 05:38:25;;;;;;;14.70;10.80;;;;;;;;;;4975866;28;20031;-72
2021/03/13 05:40:51;;;;;;;16.55;11.93;;;;;;;;;;4974997;28;20031;-73
2021/03/13 05:43:17;;;;;;;20.00;14.48;;;;;;;;;;4970164;28;20062;-72
2021/03/13 05:45:43;;;;;;;54.38;31.65;;;;;;;;;;4972154;28;20027;-69
2021/03/13 05:48:09;;;;;;;43.63;29.58;;;;;;;;;;4971474;28;20043;-75
2021/03/13 05:50:36;;;;;;;39.03;25.77;;;;;;;;;;4973294;28;20019;-77
2021/03/13 05:53:03;;;;;;;23.73;17.58;;;;;;;;;;4971971;28;20141;-67
2021/03/13 05:55:29;;;;;;;18.40;14.52;;;;;;;;;;4972278;28;20101;-74
2021/03/13 05:57:56;;;;;;;17.63;14.07;;;;;;;;;;4970471;28;20033;-71
2021/03/13 06:00:22;;;;;;;17.60;13.02;;;;;;;;;;4969775;28;20378;-72
2021/03/13 06:02:54;;;;;;;20.90;14.43;;;;;;;;;;4972194;28;20074;-69
2021/03/13 06:05:20;;;;;;;17.65;13.02;;;;;;;;;;4970563;28;20109;-69
2021/03/13 06:07:47;;;;;;;15.90;12.82;;;;;;;;;;4970135;28;20046;-71
2021/03/13 06:10:14;;;;;;;16.70;12.57;;;;;;;;;;4980905;28;20026;-71
2021/03/13 06:12:40;;;;;;;17.33;13.98;;;;;;;;;;4977575;28;20031;-71
2021/03/13 06:15:07;;;;;;;19.30;12.98;;;;;;;;;;4971617;28;20464;-76
2021/03/13 06:17:52;;;;;;;16.58;12.93;;;;;;;;;;4970082;28;20042;-74
2021/03/13 06:20:38;;;;;;;13.70;9.75;;;;;;;;;;4975093;28;20035;-72
2021/03/13 06:23:07;;;;;;;13.02;8.95;;;;;;;;;;4971780;28;20033;-68
2021/03/13 06:25:34;;;;;;;14.68;10.65;;;;;;;;;;4972315;28;20114;-69
2021/03/13 06:28:00;;;;;;;14.32;10.63;;;;;;;;;;4971186;28;20053;-68
2021/03/13 06:30:30;;;;;;;13.77;9.75;;;;;;;;;;4972486;28;20583;-68
2021/03/13 06:32:56;;;;;;;10.70;8.60;;;;;;;;;;4970077;28;20023;-68
2021/03/13 06:35:22;;;;;;;10.00;7.50;;;;;;;;;;4967927;28;20023;-71
2021/03/13 06:37:49;;;;;;;7.68;6.63;;;;;;;;;;4970866;28;20019;-71
2021/03/13 06:40:35;;;;;;;9.07;6.82;;;;;;;;;;4979690;28;20022;-71
2021/03/13 06:43:02;;;;;;;8.23;5.80;;;;;;;;;;4977412;28;20121;-71
2021/03/13 06:45:29;;;;;;;8.32;5.63;;;;;;;;;;4967574;28;20488;-73
2021/03/13 06:47:56;;;;;;;7.40;5.47;;;;;;;;;;4982656;28;20042;-71
2021/03/13 06:50:25;;;;;;;7.88;5.00;;;;;;;;;;4972170;28;20481;-71
2021/03/13 06:52:53;;;;;;;7.50;5.40;;;;;;;;;;4952909;28;20051;-72
2021/03/13 06:55:22;;;;;;;6.53;4.72;;;;;;;;;;4952346;28;20039;-71
2021/03/13 06:57:48;;;;;;;8.43;5.57;;;;;;;;;;4943172;28;20028;-73
2021/03/13 07:00:27;;;;;;;8.25;5.30;;;;;;;;;;4956118;28;20493;-68
2021/03/13 07:02:53;;;;;;;7.50;5.93;;;;;;;;;;4956414;28;20147;-74
2021/03/13 07:05:28;;;;;;;7.35;6.07;;;;;;;;;;4955675;28;20102;-71
2021/03/13 07:07:54;;;;;;;8.25;6.68;;;;;;;;;;4955569;28;20514;-73
2021/03/13 07:10:25;;;;;;;9.40;6.30;;;;;;;;;;4956152;28;20346;-71
2021/03/13 07:12:51;;;;;;;8.10;6.68;;;;;;;;;;4956118;28;20031;-66
2021/03/13 07:15:17;;;;;;;11.52;8.00;;;;;;;;;;4956149;28;20030;-68
2021/03/13 07:17:45;;;;;;;9.68;7.60;;;;;;;;;;4955305;28;20035;-71
2021/03/13 07:20:12;;;;;;;10.90;8.05;;;;;;;;;;4954896;28;20027;-66
2021/03/13 07:22:39;;;;;;;10.68;8.40;;;;;;;;;;4955295;28;20041;-68
2021/03/13 07:25:05;;;;;;;10.77;8.60;;;;;;;;;;4955140;28;20477;-67
2021/03/13 07:27:34;;;;;;;9.65;7.82;;;;;;;;;;4955062;28;20038;-71
2021/03/13 07:30:03;;;;;;;9.52;8.13;;;;;;;;;;4955320;28;20464;-71
2021/03/13 07:32:31;;;;;;;12.30;11.00;;;;;;;;;;4954716;28;20034;-69
2021/03/13 07:34:58;;;;;;;13.35;9.18;;;;;;;;;;4955151;28;20110;-68
2021/03/13 07:37:24;;;;;;;9.60;7.68;;;;;;;;;;4954425;28;20023;-72
2021/03/13 07:39:51;;;;;;;11.00;8.50;;;;;;;;;;4954383;28;20028;-70
2021/03/13 07:42:19;;;;;;;10.88;8.20;;;;;;;;;;4955657;28;20098;-73
2021/03/13 07:44:45;;;;;;;9.88;7.55;;;;;;;;;;4953476;28;20023;-72
2021/03/13 07:47:13;;;;;;;14.60;9.15;;;;;;;;;;4959394;28;20458;-70
2021/03/13 07:49:41;;;;;;;9.73;8.68;;;;;;;;;;4939173;29;20117;-70
2021/03/13 07:52:08;;;;;;;9.95;8.43;;;;;;;;;;4959193;28;20441;-74
2021/03/13 07:54:48;;;;;;;13.63;8.43;;;;;;;;;;4974631;28;20092;-73
2021/03/13 07:57:15;;;;;;;11.00;8.38;;;;;;;;;;4973345;28;20031;-72
2021/03/13 07:59:42;;;;;;;12.23;8.52;;;;;;;;;;4973616;28;20054;-69
2021/03/13 08:02:09;;;;;;;8.32;6.82;;;;;;;;;;4973683;28;20049;-72
2021/03/13 08:04:37;;;;;;;7.10;6.28;;;;;;;;;;4969030;28;20019;-70
2021/03/13 08:07:04;;;;;;;7.97;6.20;;;;;;;;;;4973979;28;20031;-70
2021/03/13 08:09:31;;;;;;;7.80;5.68;;;;;;;;;;4974740;28;20042;-68
2021/03/13 08:11:59;;;;;;;7.28;5.35;;;;;;;;;;4974191;28;20054;-71
2021/03/13 08:14:31;;;;;;;5.55;4.70;;;;;;;;;;4972993;28;20034;-71
2021/03/13 08:17:12;;;;;;;8.93;4.67;;;;;;;;;;4974015;28;20034;-70
2021/03/13 08:19:39;;;;;;;5.25;4.20;;;;;;;;;;4973565;28;20035;-68
2021/03/13 08:22:11;;;;;;;4.00;3.20;;;;;;;;;;4977952;28;20099;-70
2021/03/13 08:24:44;;;;;;;5.20;3.60;;;;;;;;;;4975222;28;20118;-68
2021/03/13 08:27:11;;;;;;;4.40;3.80;;;;;;;;;;4980567;28;20484;-67
2021/03/13 08:29:48;;;;;;;5.38;3.13;;;;;;;;;;4973989;28;20034;-70
2021/03/13 08:32:14;;;;;;;5.38;4.18;;;;;;;;;;4973168;28;20031;-71
2021/03/13 08:34:41;;;;;;;4.90;3.67;;;;;;;;;;4973611;28;20035;-68
2021/03/13 08:37:18;;;;;;;15.02;9.60;;;;;;;;;;4973730;28;20040;-68
2021/03/13 08:39:44;;;;;;;18.23;10.40;;;;;;;;;;4967931;28;20077;-70
2021/03/13 08:42:10;;;;;;;11.50;6.70;;;;;;;;;;4972419;28;20038;-70
2021/03/13 08:44:37;;;;;;;9.13;7.07;;;;;;;;;;4972968;28;20034;-71
2021/03/13 08:47:07;;;;;;;12.70;9.43;;;;;;;;;;4973936;28;20023;-67
2021/03/13 08:49:35;;;;;;;7.68;5.82;;;;;;;;;;4973255;28;20027;-67
2021/03/13 08:52:10;;;;;;;6.43;4.20;;;;;;;;;;4973298;28;20031;-72
2021/03/13 08:54:45;;;;;;;11.68;8.90;;;;;;;;;;4972921;28;20027;-71
2021/03/13 08:57:15;;;;;;;9.05;6.75;;;;;;;;;;4973151;28;20114;-70
2021/03/13 08:59:57;;;;;;;7.88;6.50;;;486.60;1228.80;;;;;;4972701;28;20054;-72
2021/03/13 09:02:23;;;;;;;6.07;3.92;;;;;;;;;;4972370;28;20053;-73
2021/03/13 09:04:51;;;;;;;6.72;5.40;;;;;;;;;;4972797;28;20385;-68
2021/03/13 09:07:21;;;;;;;4.50;3.50;;;460.90;1331.20;;;;;;4971726;28;20027;-71
2021/03/13 09:09:48;;;;;;;6.28;3.50;;;435.90;1356.80;;;;;;4973291;28;20026;-68
2021/03/13 09:12:15;;;;;;;6.47;4.70;;;;;;;;;;4972636;28;20043;-69
2021/03/13 09:14:49;;;;;;;8.45;6.10;;;435.60;1382.40;;;;;;4970858;28;20117;-68
2021/03/13 09:17:17;;;;;;;5.43;4.55;;;435.20;1459.20;;;;;;4972759;28;20030;-75
2021/03/13 09:19:44;;;;;;;6.75;4.40;;;;;;;;;;4987694;28;20034;-74
2021/03/13 09:22:15;;;;;;;4.22;3.50;;;410.00;1510.40;;;;;;4971529;28;20065;-78
2021/03/13 09:24:42;;;;;;;5.30;3.65;;;;;;;;;;4973344;28;20435;-73
2021/03/13 09:27:09;;;;;;;4.47;3.20;;;409.80;1536.00;;;;;;4972599;28;20385;-71
2021/03/13 09:29:37;;;;;;;8.70;4.28;;;409.60;1536.00;;;;;;4971634;28;20026;-79
2021/03/13 09:32:14;;;;;;;3.85;3.15;;;384.60;1536.00;;;;;;4971420;28;20102;-71
2021/03/13 09:34:45;;;;;;;4.63;3.40;;;384.30;1510.40;;;;;;4972637;28;20106;-69
2021/03/13 09:37:27;;;;;;;6.47;3.78;;;384.30;1510.40;;;;;;4972384;28;20023;-68
2021/03/13 09:40:02;;;;;;;5.05;3.80;;;384.00;1612.80;;;;;;4970074;28;20484;-69
2021/03/13 09:42:29;;;;;;;4.80;3.95;;;359.20;1612.80;;;;;;4972566;28;20080;-67
2021/03/13 09:44:57;;;;;;;5.22;4.03;;;359.30;1664.00;;;;;;4972953;28;20027;-67
2021/03/13 09:47:47;;;;;;;6.38;4.80;;;359.10;1664.00;;;;;;4972006;28;20488;-67
2021/03/13 09:50:34;;;;;;;8.80;5.28;;;358.80;1715.20;;;;;;4968201;28;20113;-72
2021/03/13 09:53:02;;;;;;;5.50;4.47;;;358.60;1740.80;;;;;;4971257;28;20035;-72
2021/03/13 09:55:31;;;;;;;8.50;4.00;;;358.40;1740.80;;;;;;4972635;28;20158;-68
2021/03/13 09:58:02;;;;;;;8.85;6.30;;;358.40;1740.80;;;;;;4972300;28;20538;-67
2021/03/13 10:00:33;;;;;;;6.53;5.10;;;333.70;1766.40;;;;;;4971477;28;20109;-67
2021/03/13 10:03:00;;;;;;;4.60;3.72;;;333.70;1792.00;;;;;;4972674;28;20169;-68
2021/03/13 10:05:29;;;;;;;6.15;4.53;;;333.70;1766.40;;;;;;4971537;28;20385;-66
2021/03/13 10:07:55;;;;;;;5.95;4.75;;;333.30;1792.00;;;;;;4982333;28;20042;-67
2021/03/13 10:10:25;;;;;;;7.53;4.15;;;333.30;1817.60;;;;;;4972405;28;20097;-74
2021/03/13 10:13:02;;;;;;;8.02;5.50;;;333.30;1843.20;;;;;;4972124;28;20026;-68
2021/03/13 10:15:33;;;;;;;10.13;5.30;;;333.30;1817.60;;;;;;4973063;28;20026;-74
2021/03/13 10:17:59;;;;;;;9.20;6.22;;;332.80;1817.60;;;;;;4983710;28;20031;-72
2021/03/13 10:20:31;;;;;;;8.43;5.85;;;333.40;1792.00;;;;;;4972525;28;20027;-73
2021/03/13 10:23:08;;;;;;;9.52;6.43;;;333.30;1792.00;;;;;;4971826;28;20113;-70
2021/03/13 10:25:35;;;;;;;11.55;7.07;;;333.30;1868.80;;;;;;4972063;28;20512;-66
2021/03/13 10:28:14;;;;;;;6.18;4.80;;;333.50;1817.60;;;;;;4972283;28;20058;-65
2021/03/13 10:30:42;;;;;;;5.63;4.65;;;333.30;1843.20;;;;;;4971269;28;20034;-65
2021/03/13 10:33:08;;;;;;;5.28;4.22;;;333.30;1792.00;;;;;;4974195;28;20496;-67
2021/03/13 10:35:35;;;;;;;6.93;4.85;;;333.20;1843.20;;;;;;4976539;28;20019;-66
2021/03/13 10:38:09;;;;;;;6.13;4.85;;;333.20;1843.20;;;;;;4971156;28;20045;-66
2021/03/13 10:40:41;;;;;;;5.63;4.75;;;333.20;1843.20;;;;;;4979785;28;20027;-66
2021/03/13 10:43:14;;;;;;;6.00;4.53;;;333.20;1817.60;;;;;;4975704;28;20117;-67
2021/03/13 10:45:42;;;;;;;5.40;4.13;;;333.20;1843.20;;;;;;4975250;28;20433;-65
2021/03/13 10:48:10;;;;;;;7.60;4.78;;;333.20;1817.60;;;;;;4975432;28;20228;-66
2021/03/13 10:50:37;;;;;;;6.88;4.25;;;333.30;1792.00;;;;;;4975992;28;20046;-67
2021/03/13 10:53:27;;;;;;;6.82;4.47;;;333.20;1740.80;;;;;;4974842;28;20053;-66
2021/03/13 10:55:54;;;;;;;8.50;5.07;;;333.30;1792.00;;;;;;4974972;28;20513;-67
2021/03/13 10:58:25;;;;;;;7.38;4.15;;;333.30;1817.60;;;;;;4975109;28;20034;-67
2021/03/13 11:00:51;;;;;;;6.82;4.75;;;333.50;1817.60;;;;;;4965939;28;20029;-67
2021/03/13 11:03:16;;;;;;;8.65;4.78;;;333.50;1843.20;;;;;;4975153;28;20046;-68
2021/03/13 11:05:42;;;;;;;6.32;3.97;;;333.50;1740.80;;;;;;4975168;28;20022;-67
2021/03/13 11:08:11;;;;;;;5.95;3.90;;;333.40;1689.60;;;;;;4976582;28;20031;-70
2021/03/13 11:10:38;;;;;;;7.03;4.35;;;333.30;1715.20;;;;;;4976617;28;20045;-72
2021/03/13 11:13:05;;;;;;;12.80;4.90;;;333.40;1740.80;;;;;;4974804;28;20027;-69
2021/03/13 11:15:31;;;;;;;6.00;4.55;;;333.40;1740.80;;;;;;4975063;28;20023;-71
2021/03/13 11:17:56;;;;;;;7.13;4.40;;;333.40;1715.20;;;;;;4984280;28;20055;-73
2021/03/13 11:20:22;;;;;;;5.75;4.03;;;333.40;1715.20;;;;;;4981239;28;20026;-70
2021/03/13 11:22:48;;;;;;;5.85;4.63;;;333.40;1715.20;;;;;;4987318;28;20415;-69
2021/03/13 11:25:14;;;;;;;7.90;4.70;;;333.30;1715.20;;;;;;4971899;28;20031;-70
2021/03/13 11:27:40;;;;;;;12.13;4.93;;;333.30;1792.00;;;;;;4974593;28;20058;-69
2021/03/13 11:30:09;;;;;;;8.52;5.38;;;333.40;1740.80;;;;;;4968773;28;20062;-66
2021/03/13 11:32:37;;;;;;;6.55;4.50;;;333.50;1792.00;;;;;;4974981;28;20058;-69
2021/03/13 11:35:05;;;;;;;7.45;4.68;;;333.50;1766.40;;;;;;4979551;28;20077;-71
2021/03/13 11:37:31;;;;;;;7.50;4.93;;;333.60;1740.80;;;;;;4976107;28;20552;-73
2021/03/13 11:39:56;;;;;;;6.47;5.30;;;333.70;1792.00;;;;;;4970337;28;20377;-72
2021/03/13 11:42:27;;;;;;;7.18;5.22;;;358.40;1740.80;;;;;;4972871;28;20114;-78
2021/03/13 11:44:57;;;;;;;6.35;4.78;;;358.40;1792.00;;;;;;4977319;28;20049;-70
2021/03/13 11:47:27;;;;;;;18.83;6.82;;;333.70;1689.60;;;;;;4980856;28;20102;-67
2021/03/13 11:49:54;;;;;;;17.85;5.03;;;333.60;1740.80;;;;;;4973295;28;20567;-72
2021/03/13 11:52:23;;;;;;;8.63;5.13;;;333.50;1740.80;;;;;;4971747;28;20405;-70
2021/03/13 11:54:50;;;;;;;6.03;4.68;;;333.50;1740.80;;;;;;4973726;28;20031;-68
2021/03/13 11:57:16;;;;;;;5.88;4.90;;;333.50;1715.20;;;;;;4972627;28;20038;-70
2021/03/13 11:59:47;;;;;;;6.97;4.93;;;333.30;1740.80;;;;;;4975848;28;20443;-67
2021/03/13 12:02:16;;;;;;;6.68;5.63;;;333.30;1740.80;;;;;;4970399;28;20027;-75
2021/03/13 12:04:43;;;;;;;5.72;5.13;;;333.00;1740.80;;;;;;4973986;28;20039;-70
2021/03/13 12:07:09;;;;;;;9.93;5.78;;;333.10;1766.40;;;;;;4974660;28;20105;-69
2021/03/13 12:09:35;;;;;;;7.40;5.28;;;333.20;1792.00;;;;;;4974697;28;20035;-68
2021/03/13 12:12:04;;;;;;;7.05;5.75;;;333.00;1766.40;;;;;;4972999;28;20085;-68
2021/03/13 12:14:31;;;;;;;7.97;5.50;;;332.90;1766.40;;;;;;4987786;28;20385;-69
2021/03/13 12:16:57;;;;;;;9.45;6.57;;;333.00;1766.40;;;;;;4975074;28;20073;-69
2021/03/13 12:19:23;;;;;;;9.25;6.40;;;333.00;1766.40;;;;;;4972668;28;20023;-69
2021/03/13 12:21:51;;;;;;;7.47;5.85;;;333.20;1792.00;;;;;;4973105;28;20089;-69
2021/03/13 12:24:17;;;;;;;8.18;6.07;;;333.20;1766.40;;;;;;4974206;28;20038;-71
2021/03/13 12:26:43;;;;;;;6.85;5.70;;;333.30;1766.40;;;;;;4973850;28;20385;-71
2021/03/13 12:29:09;;;;;;;11.70;6.90;;;333.40;1766.40;;;;;;4973439;28;20043;-71
2021/03/13 12:31:36;;;;;;;11.73;6.60;;;333.60;1740.80;;;;;;4973576;28;20060;-72
2021/03/13 12:34:02;;;;;;;9.93;7.13;;;333.70;1715.20;;;;;;4969360;28;20026;-75
2021/03/13 12:36:28;;;;;;;21.08;11.90;;;333.60;1715.20;;;;;;4984450;28;20465;-72
2021/03/13 12:38:54;;;;;;;14.60;9.95;;;333.70;1766.40;;;;;;4974001;28;20358;-77
2021/03/13 12:41:19;;;;;;;21.70;12.93;;;358.40;1766.40;;;;;;4965583;28;20487;-71
2021/03/13 12:43:45;;;;;;;10.38;7.30;;;358.40;1766.40;;;;;;4972653;28;20437;-69
2021/03/13 12:46:15;;;;;;;13.07;6.53;;;358.60;1689.60;;;;;;4975051;28;20493;-69
2021/03/13 12:48:45;;;;;;;10.48;6.85;;;358.60;1664.00;;;;;;4973509;28;20026;-69
2021/03/13 12:51:11;;;;;;;8.52;6.60;;;358.50;1664.00;;;;;;4974117;28;20041;-70
2021/03/13 12:53:37;;;;;;;19.13;7.80;;;358.40;1689.60;;;;;;4972770;28;20042;-70
2021/03/13 12:56:03;;;;;;;10.00;6.63;;;358.40;1689.60;;;;;;4981273;28;20029;-69
2021/03/13 12:58:29;;;;;;;11.27;7.30;;;333.70;1689.60;;;;;;4973180;28;20383;-69
2021/03/13 13:00:55;;;;;;;13.07;11.02;;;333.60;1715.20;;;;;;4973201;28;20118;-69